AZG333 UBBB-VGHS
Flight info
| Callsign | AZG333 |
|---|---|
| Flight time | 4h 46m |
| Altitude | 33000 |
| Route | NAMAS N35 RODAR A909 BABUM A477 NONIK B361 RARUN A125 ABNEP B352 GONAK/K0895F330 Y300 FIZLE T186 AMDAR/N0485F330 M875 TAPIS/N0481F350 L509 SULOM A466 ASARI L509 GUGIP B345 KEVOD J71 PPT A201 BOGEP |
| Aircraft | B77L/H-SDE1E2E3FGHIJ2J3J4J5M1RWXY/LB1D1 |
Departure
| Time | 2026-04-26 17:10 |
|---|---|
| Airport | Heydar Aliyev International Airport (UBBB) |
Arrival
| Time | 2026-04-26 21:56 |
|---|---|
| Airport | Hazrat Shahjalal International Airport (VGHS) |
| Time | Latitude | Longitude | Altitude | Speed | Heading |
|---|---|---|---|---|---|
| 2026-04-26 16:00 | 40.45980 | 50.05857 | 19 ft | 0 kts | 269° |
| 2026-04-26 16:01 | 40.45910 | 50.05858 | 19 ft | 0 kts | 269° |
| 2026-04-26 16:37 | 40.45910 | 50.05885 | 21 ft | 4 kts | 277° |
| 2026-04-26 16:37 | 40.45905 | 50.05919 | 19 ft | 4 kts | 294° |
| 2026-04-26 16:37 | 40.45892 | 50.05947 | 19 ft | 4 kts | 316° |
| 2026-04-26 16:38 | 40.45872 | 50.05965 | 22 ft | 4 kts | 344° |
| 2026-04-26 16:38 | 40.45855 | 50.05969 | 19 ft | 1 kts | 359° |
| 2026-04-26 16:42 | 40.45859 | 50.05969 | 19 ft | 2 kts | 358° |
| 2026-04-26 16:42 | 40.45879 | 50.05969 | 21 ft | 4 kts | 358° |
| 2026-04-26 16:42 | 40.45924 | 50.05967 | 21 ft | 8 kts | 360° |
| 2026-04-26 16:42 | 40.45979 | 50.05966 | 21 ft | 9 kts | 359° |
| 2026-04-26 16:43 | 40.46045 | 50.05966 | 19 ft | 9 kts | 360° |
| 2026-04-26 16:43 | 40.46106 | 50.05970 | 19 ft | 8 kts | 22° |
| 2026-04-26 16:43 | 40.46129 | 50.06038 | 19 ft | 9 kts | 82° |
| 2026-04-26 16:43 | 40.46172 | 50.06097 | 20 ft | 10 kts | 12° |
| 2026-04-26 16:44 | 40.46239 | 50.06101 | 19 ft | 10 kts | 360° |
| 2026-04-26 16:44 | 40.46307 | 50.06099 | 19 ft | 11 kts | 359° |
| 2026-04-26 16:44 | 40.46408 | 50.06097 | 19 ft | 15 kts | 358° |
| 2026-04-26 16:44 | 40.46513 | 50.06096 | 19 ft | 15 kts | 359° |
| 2026-04-26 16:45 | 40.46616 | 50.06095 | 19 ft | 15 kts | 359° |
| 2026-04-26 16:45 | 40.46713 | 50.06093 | 19 ft | 13 kts | 359° |
| 2026-04-26 16:45 | 40.46804 | 50.06092 | 19 ft | 13 kts | 360° |
| 2026-04-26 16:45 | 40.46896 | 50.06090 | 19 ft | 13 kts | 358° |
| 2026-04-26 16:46 | 40.46988 | 50.06089 | 18 ft | 13 kts | 0° |
| 2026-04-26 16:46 | 40.47079 | 50.06088 | 18 ft | 13 kts | 359° |
| 2026-04-26 16:46 | 40.47171 | 50.06089 | 18 ft | 13 kts | 358° |
| 2026-04-26 16:46 | 40.47262 | 50.06085 | 18 ft | 13 kts | 359° |
| 2026-04-26 16:47 | 40.47354 | 50.06084 | 19 ft | 13 kts | 359° |
| 2026-04-26 16:47 | 40.47446 | 50.06082 | 18 ft | 13 kts | 359° |
| 2026-04-26 16:47 | 40.47536 | 50.06082 | 19 ft | 13 kts | 359° |
| 2026-04-26 16:47 | 40.47627 | 50.06079 | 19 ft | 13 kts | 359° |
| 2026-04-26 16:48 | 40.47719 | 50.06078 | 19 ft | 13 kts | 360° |
| 2026-04-26 16:48 | 40.47811 | 50.06077 | 19 ft | 13 kts | 360° |
| 2026-04-26 16:48 | 40.47896 | 50.06076 | 20 ft | 11 kts | 360° |
| 2026-04-26 16:48 | 40.47971 | 50.06075 | 20 ft | 8 kts | 359° |
| 2026-04-26 16:49 | 40.47977 | 50.06075 | 19 ft | 0 kts | 359° |
| 2026-04-26 16:49 | 40.47984 | 50.06075 | 19 ft | 3 kts | 0° |
| 2026-04-26 16:50 | 40.48004 | 50.06075 | 19 ft | 3 kts | 0° |
| 2026-04-26 16:50 | 40.48024 | 50.06074 | 19 ft | 3 kts | 358° |
| 2026-04-26 16:50 | 40.48045 | 50.06073 | 19 ft | 3 kts | 358° |
| 2026-04-26 16:50 | 40.48069 | 50.06073 | 20 ft | 4 kts | 0° |
| 2026-04-26 16:51 | 40.48102 | 50.06073 | 19 ft | 5 kts | 0° |
| 2026-04-26 16:51 | 40.48142 | 50.06073 | 19 ft | 6 kts | 360° |
| 2026-04-26 16:51 | 40.48179 | 50.06073 | 19 ft | 0 kts | 359° |
| 2026-04-26 16:51 | 40.48181 | 50.06073 | 19 ft | 0 kts | 358° |
| 2026-04-26 16:54 | 40.48191 | 50.06072 | 19 ft | 4 kts | 358° |
| 2026-04-26 16:54 | 40.48219 | 50.06071 | 19 ft | 4 kts | 359° |
| 2026-04-26 16:55 | 40.48239 | 50.06071 | 19 ft | 0 kts | 359° |
| 2026-04-26 16:56 | 40.48286 | 50.06070 | 19 ft | 5 kts | 360° |
| 2026-04-26 16:56 | 40.48320 | 50.06070 | 19 ft | 5 kts | 1° |
| 2026-04-26 16:56 | 40.48354 | 50.06070 | 19 ft | 5 kts | 359° |
| 2026-04-26 16:57 | 40.48387 | 50.06070 | 19 ft | 5 kts | 0° |
| 2026-04-26 16:57 | 40.48404 | 50.06070 | 19 ft | 0 kts | 360° |
| 2026-04-26 17:02 | 40.48417 | 50.06070 | 19 ft | 3 kts | 0° |
| 2026-04-26 17:02 | 40.48418 | 50.06070 | 19 ft | 0 kts | 360° |
| 2026-04-26 17:06 | 40.48447 | 50.06072 | 20 ft | 9 kts | 5° |
| 2026-04-26 17:06 | 40.48492 | 50.06119 | 18 ft | 9 kts | 66° |
| 2026-04-26 17:07 | 40.48501 | 50.06200 | 17 ft | 9 kts | 92° |
| 2026-04-26 17:07 | 40.48472 | 50.06272 | 16 ft | 8 kts | 148° |
| 2026-04-26 17:07 | 40.48446 | 50.06279 | 16 ft | 0 kts | 173° |
| 2026-04-26 17:08 | 40.48441 | 50.06281 | 16 ft | 2 kts | 169° |
| 2026-04-26 17:08 | 40.48416 | 50.06283 | 15 ft | 0 kts | 180° |
| 2026-04-26 17:08 | 40.48393 | 50.06283 | 15 ft | 13 kts | 180° |
| 2026-04-26 17:09 | 40.48156 | 50.06288 | 18 ft | 64 kts | 179° |
| 2026-04-26 17:09 | 40.47760 | 50.06293 | 18 ft | 107 kts | 179° |
| 2026-04-26 17:09 | 40.46432 | 50.06313 | 23 ft | 173 kts | 179° |
| 2026-04-26 17:09 | 40.45204 | 50.06338 | 499 ft | 170 kts | 179° |
| 2026-04-26 17:10 | 40.44105 | 50.06346 | 1014 ft | 171 kts | 180° |
| 2026-04-26 17:10 | 40.42905 | 50.06354 | 1467 ft | 175 kts | 179° |
| 2026-04-26 17:10 | 40.41672 | 50.06378 | 1923 ft | 178 kts | 179° |
| 2026-04-26 17:10 | 40.40421 | 50.06401 | 2408 ft | 180 kts | 179° |
| 2026-04-26 17:11 | 40.39158 | 50.06423 | 2876 ft | 182 kts | 178° |
| 2026-04-26 17:11 | 40.37878 | 50.06498 | 3237 ft | 189 kts | 166° |
| 2026-04-26 17:11 | 40.36732 | 50.07406 | 3362 ft | 202 kts | 139° |
| 2026-04-26 17:11 | 40.35616 | 50.08661 | 3529 ft | 222 kts | 142° |
| 2026-04-26 17:12 | 40.33041 | 50.11420 | 4253 ft | 252 kts | 141° |
| 2026-04-26 17:12 | 40.31671 | 50.12904 | 4883 ft | 257 kts | 141° |
| 2026-04-26 17:13 | 40.29026 | 50.16079 | 6249 ft | 263 kts | 122° |
| 2026-04-26 17:13 | 40.28427 | 50.18369 | 6838 ft | 272 kts | 98° |
| 2026-04-26 17:13 | 40.28349 | 50.23389 | 7918 ft | 281 kts | 94° |
| 2026-04-26 17:14 | 40.28320 | 50.25982 | 7991 ft | 287 kts | 94° |
| 2026-04-26 17:14 | 40.28356 | 50.31201 | 8026 ft | 288 kts | 85° |
| 2026-04-26 17:14 | 40.28701 | 50.33789 | 8613 ft | 289 kts | 82° |
| 2026-04-26 17:15 | 40.29461 | 50.39038 | 9824 ft | 297 kts | 82° |
| 2026-04-26 17:15 | 40.29818 | 50.41726 | 10354 ft | 304 kts | 82° |
| 2026-04-26 17:15 | 40.30185 | 50.44544 | 10537 ft | 324 kts | 82° |
| 2026-04-26 17:16 | 40.30572 | 50.47557 | 10711 ft | 345 kts | 82° |
| 2026-04-26 17:16 | 40.30973 | 50.50711 | 10875 ft | 365 kts | 82° |
| 2026-04-26 17:16 | 40.31402 | 50.54081 | 11132 ft | 382 kts | 82° |
| 2026-04-26 17:16 | 40.31847 | 50.57562 | 11582 ft | 392 kts | 82° |
| 2026-04-26 17:17 | 40.32303 | 50.61132 | 12133 ft | 400 kts | 82° |
| 2026-04-26 17:17 | 40.32764 | 50.64744 | 12793 ft | 403 kts | 82° |
| 2026-04-26 17:17 | 40.33226 | 50.68387 | 13455 ft | 407 kts | 82° |
| 2026-04-26 17:17 | 40.33691 | 50.72069 | 14083 ft | 411 kts | 82° |
| 2026-04-26 17:18 | 40.34159 | 50.75780 | 14707 ft | 415 kts | 82° |
| 2026-04-26 17:18 | 40.34625 | 50.79488 | 15283 ft | 419 kts | 82° |
| 2026-04-26 17:18 | 40.35101 | 50.83283 | 15869 ft | 423 kts | 82° |
| 2026-04-26 17:18 | 40.35579 | 50.87109 | 16465 ft | 427 kts | 82° |
| 2026-04-26 17:19 | 40.36643 | 50.94862 | 17592 ft | 434 kts | 78° |
| 2026-04-26 17:19 | 40.37338 | 50.98690 | 18119 ft | 439 kts | 76° |
| 2026-04-26 17:19 | 40.38088 | 51.02593 | 18654 ft | 442 kts | 76° |
| 2026-04-26 17:20 | 40.38844 | 51.06519 | 19168 ft | 446 kts | 76° |
| 2026-04-26 17:20 | 40.39100 | 51.07863 | 19336 ft | 447 kts | 76° |
| 2026-04-26 17:20 | 40.40087 | 51.13146 | 20013 ft | 452 kts | 77° |
| 2026-04-26 17:20 | 40.40827 | 51.17187 | 20502 ft | 456 kts | 77° |
| 2026-04-26 17:21 | 40.41565 | 51.21259 | 20984 ft | 460 kts | 77° |
| 2026-04-26 17:21 | 40.42546 | 51.26706 | 21627 ft | 465 kts | 77° |
| 2026-04-26 17:21 | 40.43050 | 51.29511 | 21930 ft | 467 kts | 77° |
| 2026-04-26 17:21 | 40.43801 | 51.33690 | 22381 ft | 471 kts | 77° |
| 2026-04-26 17:22 | 40.44545 | 51.37833 | 22833 ft | 474 kts | 77° |
| 2026-04-26 17:22 | 40.45303 | 51.42068 | 23262 ft | 478 kts | 77° |
| 2026-04-26 17:22 | 40.45926 | 51.46363 | 23673 ft | 480 kts | 84° |
| 2026-04-26 17:22 | 40.46068 | 51.50757 | 24075 ft | 482 kts | 93° |
| 2026-04-26 17:23 | 40.45788 | 51.55164 | 24497 ft | 484 kts | 101° |
| 2026-04-26 17:23 | 40.45085 | 51.59485 | 24914 ft | 485 kts | 106° |
| 2026-04-26 17:23 | 40.44264 | 51.63797 | 25336 ft | 488 kts | 106° |
| 2026-04-26 17:23 | 40.43423 | 51.68130 | 25773 ft | 491 kts | 107° |
| 2026-04-26 17:24 | 40.42580 | 51.72493 | 26189 ft | 494 kts | 106° |
| 2026-04-26 17:24 | 40.41744 | 51.76882 | 26579 ft | 497 kts | 106° |
| 2026-04-26 17:24 | 40.40925 | 51.81242 | 26976 ft | 500 kts | 106° |
| 2026-04-26 17:24 | 40.40096 | 51.85686 | 27357 ft | 503 kts | 106° |
| 2026-04-26 17:25 | 40.39266 | 51.90158 | 27738 ft | 506 kts | 106° |
| 2026-04-26 17:25 | 40.38432 | 51.94654 | 28125 ft | 509 kts | 106° |
| 2026-04-26 17:25 | 40.37590 | 51.99189 | 28504 ft | 511 kts | 106° |
| 2026-04-26 17:25 | 40.36743 | 52.03719 | 28853 ft | 514 kts | 106° |
| 2026-04-26 17:26 | 40.35887 | 52.08283 | 29162 ft | 517 kts | 106° |
| 2026-04-26 17:26 | 40.35023 | 52.12878 | 29487 ft | 520 kts | 106° |
| 2026-04-26 17:26 | 40.34155 | 52.17480 | 29820 ft | 521 kts | 106° |
| 2026-04-26 17:26 | 40.33286 | 52.22091 | 30232 ft | 520 kts | 107° |
| 2026-04-26 17:27 | 40.32415 | 52.26695 | 30685 ft | 519 kts | 107° |
| 2026-04-26 17:27 | 40.31544 | 52.31288 | 31091 ft | 519 kts | 107° |
| 2026-04-26 17:27 | 40.30682 | 52.35815 | 31462 ft | 519 kts | 107° |
| 2026-04-26 17:27 | 40.29810 | 52.40393 | 31827 ft | 518 kts | 107° |
| 2026-04-26 17:28 | 40.28934 | 52.44977 | 32162 ft | 518 kts | 107° |
| 2026-04-26 17:28 | 40.28057 | 52.49555 | 32509 ft | 518 kts | 107° |
| 2026-04-26 17:28 | 40.27174 | 52.54152 | 32797 ft | 519 kts | 107° |
| 2026-04-26 17:28 | 40.26291 | 52.58744 | 33035 ft | 521 kts | 107° |
| 2026-04-26 17:29 | 40.24810 | 52.66432 | 33097 ft | 523 kts | 107° |
| 2026-04-26 17:29 | 40.22756 | 52.77114 | 33091 ft | 517 kts | 107° |
| 2026-04-26 17:30 | 40.20992 | 52.86247 | 33107 ft | 517 kts | 107° |
| 2026-04-26 17:30 | 40.19218 | 52.95374 | 33101 ft | 518 kts | 107° |
| 2026-04-26 17:31 | 40.17443 | 53.04466 | 33106 ft | 519 kts | 107° |
| 2026-04-26 17:31 | 40.15646 | 53.13617 | 33104 ft | 520 kts | 108° |
| 2026-04-26 17:32 | 40.13834 | 53.22813 | 33104 ft | 521 kts | 107° |
| 2026-04-26 17:32 | 40.12017 | 53.31996 | 33098 ft | 522 kts | 108° |
| 2026-04-26 17:33 | 40.10191 | 53.41177 | 33102 ft | 522 kts | 107° |
| 2026-04-26 17:34 | 40.07453 | 53.54879 | 33100 ft | 521 kts | 107° |
| 2026-04-26 17:34 | 40.05610 | 53.64047 | 33103 ft | 521 kts | 108° |
| 2026-04-26 17:35 | 40.03762 | 53.73198 | 33105 ft | 521 kts | 108° |
| 2026-04-26 17:35 | 40.01905 | 53.82355 | 33100 ft | 521 kts | 108° |
| 2026-04-26 17:36 | 40.00054 | 53.91440 | 33100 ft | 520 kts | 108° |
| 2026-04-26 17:36 | 39.98185 | 54.00564 | 33099 ft | 520 kts | 108° |
| 2026-04-26 17:37 | 39.96314 | 54.09670 | 33102 ft | 520 kts | 108° |
| 2026-04-26 17:37 | 39.94434 | 54.18783 | 33102 ft | 520 kts | 108° |
| 2026-04-26 17:38 | 39.91602 | 54.32434 | 33100 ft | 520 kts | 108° |
| 2026-04-26 17:38 | 39.89717 | 54.41472 | 33099 ft | 520 kts | 108° |
| 2026-04-26 17:39 | 39.87807 | 54.50538 | 33105 ft | 519 kts | 108° |
| 2026-04-26 17:39 | 39.85865 | 54.59592 | 33107 ft | 518 kts | 108° |
| 2026-04-26 17:40 | 39.84257 | 54.67100 | 33110 ft | 517 kts | 108° |
| 2026-04-26 17:40 | 39.82623 | 54.77789 | 33114 ft | 520 kts | 97° |
| 2026-04-26 17:41 | 39.82539 | 54.87216 | 33115 ft | 521 kts | 88° |
| 2026-04-26 17:41 | 39.82942 | 54.96642 | 33116 ft | 521 kts | 89° |
| 2026-04-26 17:42 | 39.83252 | 55.06070 | 33109 ft | 521 kts | 89° |
| 2026-04-26 17:42 | 39.83544 | 55.15485 | 33111 ft | 521 kts | 89° |
| 2026-04-26 17:43 | 39.83842 | 55.24864 | 33112 ft | 520 kts | 89° |
| 2026-04-26 17:43 | 39.84137 | 55.34284 | 33109 ft | 520 kts | 89° |
| 2026-04-26 17:44 | 39.84421 | 55.43686 | 33111 ft | 520 kts | 89° |
| 2026-04-26 17:44 | 39.84694 | 55.53094 | 33116 ft | 520 kts | 90° |
| 2026-04-26 17:45 | 39.84960 | 55.62501 | 33121 ft | 520 kts | 90° |
| 2026-04-26 17:45 | 39.85220 | 55.71919 | 33120 ft | 520 kts | 90° |
| 2026-04-26 17:46 | 39.85473 | 55.81335 | 33120 ft | 521 kts | 90° |
| 2026-04-26 17:46 | 39.85718 | 55.90713 | 33123 ft | 521 kts | 90° |
| 2026-04-26 17:47 | 39.85914 | 55.98548 | 33119 ft | 521 kts | 90° |
| 2026-04-26 17:47 | 39.86185 | 56.09562 | 33120 ft | 521 kts | 90° |
| 2026-04-26 17:48 | 39.86337 | 56.18987 | 33119 ft | 519 kts | 94° |
| 2026-04-26 17:48 | 39.85474 | 56.28278 | 33128 ft | 515 kts | 105° |
| 2026-04-26 17:49 | 39.83619 | 56.37236 | 33142 ft | 513 kts | 109° |
| 2026-04-26 17:49 | 39.81678 | 56.46110 | 33127 ft | 514 kts | 109° |
| 2026-04-26 17:50 | 39.79751 | 56.55062 | 33130 ft | 514 kts | 109° |
| 2026-04-26 17:50 | 39.77842 | 56.64028 | 33129 ft | 514 kts | 108° |
| 2026-04-26 17:51 | 39.75930 | 56.72998 | 33130 ft | 515 kts | 109° |
| 2026-04-26 17:51 | 39.74008 | 56.81976 | 33129 ft | 515 kts | 109° |
| 2026-04-26 17:52 | 39.72081 | 56.90930 | 33127 ft | 514 kts | 109° |
| 2026-04-26 17:52 | 39.70147 | 56.99871 | 33120 ft | 514 kts | 109° |
| 2026-04-26 17:53 | 39.68222 | 57.08742 | 33122 ft | 514 kts | 109° |
| 2026-04-26 17:54 | 39.65296 | 57.22145 | 33122 ft | 514 kts | 109° |
| 2026-04-26 17:54 | 39.63340 | 57.31065 | 33120 ft | 514 kts | 109° |
| 2026-04-26 17:55 | 39.61375 | 57.39993 | 33129 ft | 514 kts | 109° |
| 2026-04-26 17:55 | 39.59401 | 57.48923 | 33140 ft | 514 kts | 109° |
| 2026-04-26 17:56 | 39.57435 | 57.57775 | 33139 ft | 514 kts | 109° |
| 2026-04-26 17:57 | 39.53453 | 57.75616 | 33129 ft | 515 kts | 109° |
| 2026-04-26 17:57 | 39.51448 | 57.84542 | 33131 ft | 515 kts | 109° |
| 2026-04-26 17:58 | 39.47427 | 58.02324 | 33129 ft | 516 kts | 109° |
| 2026-04-26 17:59 | 39.44387 | 58.15698 | 33131 ft | 517 kts | 110° |
| 2026-04-26 17:59 | 39.42359 | 58.24570 | 33129 ft | 517 kts | 110° |
| 2026-04-26 18:00 | 39.40315 | 58.33485 | 33130 ft | 517 kts | 110° |
| 2026-04-26 18:00 | 39.38278 | 58.42406 | 33131 ft | 516 kts | 110° |
| 2026-04-26 18:01 | 39.36245 | 58.51301 | 33139 ft | 516 kts | 110° |
| 2026-04-26 18:01 | 39.34203 | 58.60188 | 33137 ft | 516 kts | 110° |
| 2026-04-26 18:02 | 39.32844 | 58.66079 | 33138 ft | 516 kts | 110° |
| 2026-04-26 18:02 | 39.30109 | 58.77898 | 33139 ft | 516 kts | 110° |
| 2026-04-26 18:03 | 39.28041 | 58.86788 | 33139 ft | 516 kts | 110° |
| 2026-04-26 18:03 | 39.25964 | 58.95660 | 33140 ft | 516 kts | 110° |
| 2026-04-26 18:04 | 39.23861 | 59.04519 | 33141 ft | 517 kts | 110° |
| 2026-04-26 18:05 | 39.20698 | 59.17777 | 33140 ft | 517 kts | 110° |
| 2026-04-26 18:05 | 39.18576 | 59.26638 | 33137 ft | 517 kts | 110° |
| 2026-04-26 18:06 | 39.16449 | 59.35493 | 33145 ft | 517 kts | 110° |
| 2026-04-26 18:06 | 39.14318 | 59.44339 | 33148 ft | 517 kts | 110° |
| 2026-04-26 18:07 | 39.12541 | 59.51690 | 33148 ft | 517 kts | 110° |
| 2026-04-26 18:07 | 39.10045 | 59.61968 | 33139 ft | 517 kts | 110° |
| 2026-04-26 18:08 | 39.07891 | 59.70808 | 33134 ft | 516 kts | 110° |
| 2026-04-26 18:08 | 39.06104 | 59.78118 | 33132 ft | 513 kts | 110° |
| 2026-04-26 18:09 | 39.03959 | 59.86863 | 33133 ft | 510 kts | 110° |
| 2026-04-26 18:09 | 39.01818 | 59.95557 | 33135 ft | 509 kts | 110° |
| 2026-04-26 18:10 | 38.99688 | 60.04172 | 33136 ft | 508 kts | 111° |
| 2026-04-26 18:10 | 38.97530 | 60.12870 | 33141 ft | 509 kts | 111° |
| 2026-04-26 18:11 | 38.95367 | 60.21560 | 33144 ft | 511 kts | 111° |
| 2026-04-26 18:11 | 38.93190 | 60.30277 | 33153 ft | 513 kts | 111° |
| 2026-04-26 18:12 | 38.91013 | 60.38961 | 33146 ft | 514 kts | 111° |
| 2026-04-26 18:12 | 38.88812 | 60.47704 | 33151 ft | 515 kts | 111° |
| 2026-04-26 18:13 | 38.86601 | 60.56460 | 33145 ft | 515 kts | 111° |
| 2026-04-26 18:13 | 38.84384 | 60.65210 | 33146 ft | 515 kts | 111° |
| 2026-04-26 18:14 | 38.82162 | 60.73945 | 33137 ft | 514 kts | 111° |
| 2026-04-26 18:14 | 38.79941 | 60.82655 | 33128 ft | 514 kts | 111° |
| 2026-04-26 18:15 | 38.77727 | 60.91304 | 33128 ft | 513 kts | 111° |
| 2026-04-26 18:15 | 38.75486 | 61.00007 | 33128 ft | 513 kts | 111° |
| 2026-04-26 18:16 | 38.73239 | 61.08688 | 33130 ft | 513 kts | 112° |
| 2026-04-26 18:16 | 38.69858 | 61.21704 | 33132 ft | 514 kts | 112° |
| 2026-04-26 18:17 | 38.67597 | 61.30382 | 33147 ft | 514 kts | 112° |
| 2026-04-26 18:17 | 38.65337 | 61.39020 | 33150 ft | 515 kts | 112° |
| 2026-04-26 18:18 | 38.63055 | 61.47716 | 33147 ft | 515 kts | 112° |
| 2026-04-26 18:18 | 38.60770 | 61.56410 | 33147 ft | 516 kts | 112° |
| 2026-04-26 18:19 | 38.58493 | 61.65049 | 33149 ft | 516 kts | 112° |
| 2026-04-26 18:19 | 38.56189 | 61.73758 | 33146 ft | 516 kts | 112° |
| 2026-04-26 18:20 | 38.53880 | 61.82453 | 33150 ft | 516 kts | 112° |
| 2026-04-26 18:20 | 38.51961 | 61.89665 | 33146 ft | 516 kts | 112° |
| 2026-04-26 18:21 | 38.49264 | 61.99752 | 33140 ft | 516 kts | 112° |
| 2026-04-26 18:21 | 38.46938 | 62.08427 | 33135 ft | 517 kts | 112° |
| 2026-04-26 18:22 | 38.44599 | 62.17111 | 33140 ft | 517 kts | 112° |
| 2026-04-26 18:22 | 38.42254 | 62.25797 | 33131 ft | 518 kts | 112° |
| 2026-04-26 18:23 | 38.39900 | 62.34490 | 33129 ft | 518 kts | 112° |
| 2026-04-26 18:23 | 38.37555 | 62.43114 | 33129 ft | 518 kts | 112° |
| 2026-04-26 18:24 | 38.35188 | 62.51791 | 33130 ft | 518 kts | 113° |
| 2026-04-26 18:24 | 38.32811 | 62.60475 | 33129 ft | 518 kts | 113° |
| 2026-04-26 18:25 | 38.30431 | 62.69139 | 33125 ft | 518 kts | 113° |
| 2026-04-26 18:25 | 38.28056 | 62.77757 | 33119 ft | 519 kts | 113° |
| 2026-04-26 18:26 | 38.25661 | 62.86418 | 33122 ft | 519 kts | 112° |
| 2026-04-26 18:26 | 38.23258 | 62.95084 | 33119 ft | 520 kts | 112° |
| 2026-04-26 18:27 | 38.20844 | 63.03756 | 33113 ft | 520 kts | 112° |
| 2026-04-26 18:27 | 38.18423 | 63.12432 | 33108 ft | 520 kts | 113° |
| 2026-04-26 18:28 | 38.15991 | 63.21110 | 33112 ft | 521 kts | 112° |
| 2026-04-26 18:28 | 38.13571 | 63.29723 | 33111 ft | 522 kts | 112° |
| 2026-04-26 18:29 | 38.11123 | 63.38408 | 33113 ft | 522 kts | 112° |
| 2026-04-26 18:29 | 38.08664 | 63.47098 | 33101 ft | 523 kts | 112° |
| 2026-04-26 18:30 | 38.06198 | 63.55788 | 33104 ft | 523 kts | 112° |
| 2026-04-26 18:30 | 38.03724 | 63.64484 | 33097 ft | 524 kts | 113° |
| 2026-04-26 18:31 | 38.01235 | 63.73187 | 33105 ft | 524 kts | 113° |
| 2026-04-26 18:31 | 37.98756 | 63.81829 | 33100 ft | 525 kts | 113° |
| 2026-04-26 18:32 | 37.96256 | 63.90524 | 33103 ft | 525 kts | 113° |
| 2026-04-26 18:32 | 37.93749 | 63.99220 | 33094 ft | 525 kts | 113° |
| 2026-04-26 18:33 | 37.91235 | 64.07913 | 33092 ft | 525 kts | 113° |
| 2026-04-26 18:33 | 37.88714 | 64.16597 | 33088 ft | 525 kts | 113° |
| 2026-04-26 18:34 | 37.86187 | 64.25275 | 33082 ft | 524 kts | 113° |
| 2026-04-26 18:34 | 37.83677 | 64.33869 | 33075 ft | 524 kts | 113° |
| 2026-04-26 18:35 | 37.81142 | 64.42522 | 33073 ft | 524 kts | 113° |
| 2026-04-26 18:35 | 37.78780 | 64.51247 | 33069 ft | 527 kts | 105° |
| 2026-04-26 18:36 | 37.77850 | 64.60455 | 33079 ft | 530 kts | 92° |
| 2026-04-26 18:36 | 37.78320 | 64.69734 | 33079 ft | 531 kts | 85° |
| 2026-04-26 18:37 | 37.79026 | 64.79053 | 33068 ft | 532 kts | 85° |
| 2026-04-26 18:37 | 37.79660 | 64.88381 | 33064 ft | 532 kts | 86° |
| 2026-04-26 18:38 | 37.80240 | 64.97723 | 33058 ft | 533 kts | 86° |
| 2026-04-26 18:38 | 37.80815 | 65.07082 | 33055 ft | 534 kts | 86° |
| 2026-04-26 18:39 | 37.81390 | 65.16451 | 33056 ft | 534 kts | 85° |
| 2026-04-26 18:39 | 37.81559 | 65.25774 | 33050 ft | 533 kts | 95° |
| 2026-04-26 18:40 | 37.80924 | 65.35115 | 33060 ft | 533 kts | 96° |
| 2026-04-26 18:40 | 37.80265 | 65.44464 | 33052 ft | 534 kts | 96° |
| 2026-04-26 18:41 | 37.79657 | 65.53832 | 33053 ft | 534 kts | 95° |
| 2026-04-26 18:41 | 37.79059 | 65.63211 | 33050 ft | 535 kts | 95° |
| 2026-04-26 18:42 | 37.78443 | 65.72533 | 33042 ft | 536 kts | 96° |
| 2026-04-26 18:42 | 37.77765 | 65.81907 | 33048 ft | 536 kts | 96° |
| 2026-04-26 18:43 | 37.77062 | 65.91291 | 33040 ft | 536 kts | 96° |
| 2026-04-26 18:43 | 37.76357 | 66.00675 | 33049 ft | 536 kts | 96° |
| 2026-04-26 18:44 | 37.75652 | 66.10067 | 33030 ft | 537 kts | 96° |
| 2026-04-26 18:44 | 37.74939 | 66.19458 | 33036 ft | 536 kts | 96° |
| 2026-04-26 18:45 | 37.74218 | 66.28829 | 33032 ft | 536 kts | 96° |
| 2026-04-26 18:45 | 37.73492 | 66.38196 | 33032 ft | 535 kts | 96° |
| 2026-04-26 18:46 | 37.72759 | 66.47557 | 33029 ft | 536 kts | 96° |
| 2026-04-26 18:46 | 37.72023 | 66.56857 | 33015 ft | 535 kts | 96° |
| 2026-04-26 18:47 | 37.71342 | 66.66207 | 33021 ft | 534 kts | 94° |
| 2026-04-26 18:47 | 37.70889 | 66.75582 | 33018 ft | 534 kts | 94° |
| 2026-04-26 18:48 | 37.70424 | 66.84959 | 33013 ft | 534 kts | 94° |
| 2026-04-26 18:48 | 37.69914 | 66.94262 | 33005 ft | 534 kts | 94° |
| 2026-04-26 18:49 | 37.69383 | 66.98875 | 32981 ft | 530 kts | 108° |
| 2026-04-26 18:49 | 37.67932 | 67.03104 | 33006 ft | 523 kts | 125° |
| 2026-04-26 18:49 | 37.65727 | 67.06702 | 33014 ft | 519 kts | 138° |
| 2026-04-26 18:49 | 37.62975 | 67.09654 | 32999 ft | 514 kts | 152° |
| 2026-04-26 18:50 | 37.56672 | 67.13705 | 33009 ft | 511 kts | 159° |
| 2026-04-26 18:50 | 37.50277 | 67.17735 | 33007 ft | 515 kts | 158° |
| 2026-04-26 18:51 | 37.43949 | 67.21859 | 32981 ft | 507 kts | 158° |
| 2026-04-26 18:51 | 37.37702 | 67.25949 | 32998 ft | 506 kts | 158° |
| 2026-04-26 18:52 | 37.32504 | 67.29331 | 32986 ft | 507 kts | 158° |
| 2026-04-26 18:52 | 37.24934 | 67.33127 | 32979 ft | 496 kts | 171° |
| 2026-04-26 18:53 | 37.18414 | 67.35910 | 32998 ft | 504 kts | 160° |
| 2026-04-26 18:53 | 37.12202 | 67.40129 | 32996 ft | 509 kts | 155° |
| 2026-04-26 18:54 | 37.07074 | 67.43795 | 32982 ft | 511 kts | 155° |
| 2026-04-26 18:54 | 37.00858 | 67.48168 | 32994 ft | 512 kts | 156° |
| 2026-04-26 18:55 | 36.93615 | 67.53187 | 32986 ft | 512 kts | 156° |
| 2026-04-26 18:55 | 36.88432 | 67.56766 | 32995 ft | 512 kts | 156° |
| 2026-04-26 18:56 | 36.82199 | 67.61068 | 32995 ft | 511 kts | 156° |
| 2026-04-26 18:56 | 36.75967 | 67.65362 | 32979 ft | 511 kts | 156° |
| 2026-04-26 18:57 | 36.70799 | 67.68917 | 32996 ft | 510 kts | 156° |
| 2026-04-26 18:57 | 36.63537 | 67.73923 | 33005 ft | 510 kts | 156° |
| 2026-04-26 18:58 | 36.57329 | 67.78199 | 32983 ft | 509 kts | 156° |
| 2026-04-26 18:58 | 36.51132 | 67.82457 | 32977 ft | 508 kts | 156° |
| 2026-04-26 18:59 | 36.44946 | 67.86702 | 32976 ft | 508 kts | 156° |
| 2026-04-26 18:59 | 36.38750 | 67.90942 | 32983 ft | 509 kts | 156° |
| 2026-04-26 19:00 | 36.32572 | 67.95164 | 32977 ft | 510 kts | 156° |
| 2026-04-26 19:00 | 36.26346 | 67.99410 | 32985 ft | 510 kts | 156° |
| 2026-04-26 19:01 | 36.20118 | 68.03657 | 32983 ft | 510 kts | 156° |
| 2026-04-26 19:01 | 36.13897 | 68.07882 | 32981 ft | 509 kts | 156° |
| 2026-04-26 19:02 | 36.07711 | 68.12077 | 32974 ft | 510 kts | 156° |
| 2026-04-26 19:02 | 36.02529 | 68.15587 | 32971 ft | 510 kts | 156° |
| 2026-04-26 19:03 | 35.95241 | 68.20515 | 32974 ft | 511 kts | 156° |
| 2026-04-26 19:03 | 35.88998 | 68.24726 | 32964 ft | 512 kts | 156° |
| 2026-04-26 19:04 | 35.82751 | 68.28935 | 32963 ft | 511 kts | 156° |
| 2026-04-26 19:04 | 35.76540 | 68.33110 | 32971 ft | 510 kts | 156° |
| 2026-04-26 19:05 | 35.67188 | 68.39387 | 32954 ft | 509 kts | 156° |
| 2026-04-26 19:06 | 35.60960 | 68.43559 | 32953 ft | 508 kts | 156° |
| 2026-04-26 19:06 | 35.54787 | 68.47662 | 32950 ft | 508 kts | 156° |
| 2026-04-26 19:07 | 35.48564 | 68.51778 | 32938 ft | 507 kts | 156° |
| 2026-04-26 19:07 | 35.42334 | 68.55891 | 32947 ft | 508 kts | 156° |
| 2026-04-26 19:08 | 35.36104 | 68.59997 | 32958 ft | 508 kts | 156° |
| 2026-04-26 19:08 | 35.29906 | 68.64083 | 32959 ft | 509 kts | 156° |
| 2026-04-26 19:09 | 35.23660 | 68.68190 | 32949 ft | 509 kts | 156° |
| 2026-04-26 19:09 | 35.17417 | 68.72288 | 32950 ft | 508 kts | 156° |
| 2026-04-26 19:10 | 35.11191 | 68.76368 | 32948 ft | 507 kts | 156° |
| 2026-04-26 19:10 | 35.05015 | 68.80408 | 32950 ft | 505 kts | 156° |
| 2026-04-26 19:11 | 34.98812 | 68.84460 | 32941 ft | 505 kts | 156° |
| 2026-04-26 19:11 | 34.92615 | 68.88499 | 32934 ft | 505 kts | 156° |
| 2026-04-26 19:12 | 34.86425 | 68.92527 | 32956 ft | 504 kts | 156° |
| 2026-04-26 19:12 | 34.80224 | 68.96555 | 32954 ft | 504 kts | 156° |
| 2026-04-26 19:13 | 34.74070 | 69.00545 | 32956 ft | 503 kts | 156° |
| 2026-04-26 19:13 | 34.67884 | 69.04551 | 32958 ft | 504 kts | 156° |
| 2026-04-26 19:14 | 34.61682 | 69.08561 | 32951 ft | 505 kts | 156° |
| 2026-04-26 19:14 | 34.55508 | 69.12646 | 32936 ft | 507 kts | 150° |
| 2026-04-26 19:15 | 34.50323 | 69.18558 | 32943 ft | 518 kts | 130° |
| 2026-04-26 19:15 | 34.46757 | 69.26131 | 32947 ft | 522 kts | 118° |
| 2026-04-26 19:16 | 34.43538 | 69.34037 | 32935 ft | 523 kts | 119° |
| 2026-04-26 19:16 | 34.40276 | 69.41868 | 32928 ft | 523 kts | 120° |
| 2026-04-26 19:17 | 34.36945 | 69.49683 | 32922 ft | 522 kts | 120° |
| 2026-04-26 19:17 | 34.33599 | 69.57475 | 32938 ft | 521 kts | 120° |
| 2026-04-26 19:17 | 34.31922 | 69.61376 | 33217 ft | 522 kts | 120° |
| 2026-04-26 19:18 | 34.30246 | 69.65278 | 33602 ft | 520 kts | 120° |
| 2026-04-26 19:18 | 34.28576 | 69.69165 | 34030 ft | 518 kts | 120° |
| 2026-04-26 19:18 | 34.26935 | 69.72983 | 34378 ft | 517 kts | 120° |
| 2026-04-26 19:18 | 34.25274 | 69.76839 | 34658 ft | 517 kts | 120° |
| 2026-04-26 19:19 | 34.23605 | 69.80709 | 34853 ft | 519 kts | 120° |
| 2026-04-26 19:19 | 34.20252 | 69.88469 | 34876 ft | 520 kts | 120° |
| 2026-04-26 19:20 | 34.16933 | 69.96137 | 34889 ft | 517 kts | 121° |
| 2026-04-26 19:20 | 34.13598 | 70.03794 | 34885 ft | 514 kts | 121° |
| 2026-04-26 19:21 | 34.10259 | 70.11422 | 34877 ft | 513 kts | 121° |
| 2026-04-26 19:21 | 34.06920 | 70.19042 | 34873 ft | 514 kts | 121° |
| 2026-04-26 19:22 | 34.03574 | 70.26675 | 34882 ft | 514 kts | 121° |
| 2026-04-26 19:22 | 34.00235 | 70.34272 | 34890 ft | 515 kts | 121° |
| 2026-04-26 19:23 | 33.96871 | 70.41911 | 34906 ft | 516 kts | 121° |
| 2026-04-26 19:23 | 33.93160 | 70.49257 | 34910 ft | 511 kts | 130° |
| 2026-04-26 19:24 | 33.88480 | 70.55662 | 34889 ft | 506 kts | 140° |
| 2026-04-26 19:24 | 33.80738 | 70.64324 | 34884 ft | 507 kts | 141° |
| 2026-04-26 19:25 | 33.76456 | 70.69136 | 34875 ft | 507 kts | 141° |
| 2026-04-26 19:25 | 33.70481 | 70.75905 | 34873 ft | 508 kts | 140° |
| 2026-04-26 19:26 | 33.65331 | 70.81738 | 34870 ft | 508 kts | 141° |
| 2026-04-26 19:26 | 33.60179 | 70.87559 | 34884 ft | 507 kts | 141° |
| 2026-04-26 19:27 | 33.55065 | 70.93326 | 34863 ft | 507 kts | 141° |
| 2026-04-26 19:27 | 33.50425 | 70.99677 | 34800 ft | 514 kts | 119° |
| 2026-04-26 19:28 | 33.49185 | 71.03707 | 34799 ft | 519 kts | 104° |
| 2026-04-26 19:28 | 33.48830 | 71.08006 | 34787 ft | 520 kts | 86° |
| 2026-04-26 19:28 | 33.49503 | 71.16622 | 34792 ft | 520 kts | 85° |
| 2026-04-26 19:29 | 33.50158 | 71.25268 | 34785 ft | 522 kts | 85° |
| 2026-04-26 19:29 | 33.50722 | 71.33966 | 34795 ft | 524 kts | 86° |
| 2026-04-26 19:30 | 33.51247 | 71.42646 | 34784 ft | 526 kts | 86° |
| 2026-04-26 19:30 | 33.51689 | 71.49976 | 34777 ft | 526 kts | 86° |
| 2026-04-26 19:31 | 33.52303 | 71.60147 | 34774 ft | 526 kts | 86° |
| 2026-04-26 19:31 | 33.52824 | 71.68890 | 34779 ft | 525 kts | 86° |
| 2026-04-26 19:32 | 33.53337 | 71.77620 | 34773 ft | 523 kts | 87° |
| 2026-04-26 19:32 | 33.53301 | 71.81964 | 34769 ft | 520 kts | 98° |
| 2026-04-26 19:32 | 33.52590 | 71.86186 | 34782 ft | 516 kts | 109° |
| 2026-04-26 19:33 | 33.49573 | 71.93882 | 34783 ft | 507 kts | 126° |
| 2026-04-26 19:33 | 33.45694 | 72.00876 | 34781 ft | 508 kts | 127° |
| 2026-04-26 19:34 | 33.41778 | 72.07940 | 34783 ft | 509 kts | 126° |
| 2026-04-26 19:34 | 33.37903 | 72.15060 | 34778 ft | 511 kts | 126° |
| 2026-04-26 19:35 | 33.34036 | 72.22215 | 34774 ft | 512 kts | 126° |
| 2026-04-26 19:35 | 33.30152 | 72.29391 | 34781 ft | 513 kts | 126° |
| 2026-04-26 19:36 | 33.27576 | 72.34136 | 34780 ft | 514 kts | 126° |
| 2026-04-26 19:36 | 33.22392 | 72.43667 | 34772 ft | 513 kts | 126° |
| 2026-04-26 19:37 | 33.18494 | 72.50815 | 34775 ft | 513 kts | 126° |
| 2026-04-26 19:37 | 33.14596 | 72.57950 | 34753 ft | 513 kts | 126° |
| 2026-04-26 19:38 | 33.10687 | 72.65086 | 34746 ft | 512 kts | 126° |
| 2026-04-26 19:38 | 33.06782 | 72.72204 | 34750 ft | 512 kts | 126° |
| 2026-04-26 19:39 | 33.02898 | 72.79272 | 34749 ft | 512 kts | 126° |
| 2026-04-26 19:39 | 32.98982 | 72.86384 | 34748 ft | 512 kts | 126° |
| 2026-04-26 19:40 | 32.95068 | 72.93478 | 34760 ft | 512 kts | 126° |
| 2026-04-26 19:40 | 32.91181 | 73.00514 | 34769 ft | 512 kts | 126° |
| 2026-04-26 19:41 | 32.87261 | 73.07592 | 34771 ft | 512 kts | 126° |
| 2026-04-26 19:41 | 32.84634 | 73.12328 | 34770 ft | 512 kts | 126° |
| 2026-04-26 19:42 | 32.80066 | 73.20553 | 34776 ft | 512 kts | 126° |
| 2026-04-26 19:42 | 32.74845 | 73.28108 | 34784 ft | 507 kts | 139° |
| 2026-04-26 19:43 | 32.70413 | 73.32614 | 34781 ft | 503 kts | 146° |
| 2026-04-26 19:43 | 32.64864 | 73.37694 | 34754 ft | 504 kts | 146° |
| 2026-04-26 19:44 | 32.59295 | 73.42800 | 34739 ft | 505 kts | 146° |
| 2026-04-26 19:44 | 32.53746 | 73.47932 | 34724 ft | 506 kts | 145° |
| 2026-04-26 19:45 | 32.48192 | 73.53083 | 34719 ft | 507 kts | 145° |
| 2026-04-26 19:45 | 32.42634 | 73.58229 | 34721 ft | 507 kts | 145° |
| 2026-04-26 19:46 | 32.37070 | 73.63372 | 34715 ft | 507 kts | 145° |
| 2026-04-26 19:46 | 32.31502 | 73.68507 | 34719 ft | 507 kts | 145° |
| 2026-04-26 19:47 | 32.26867 | 73.72775 | 34719 ft | 508 kts | 145° |
| 2026-04-26 19:47 | 32.20388 | 73.78732 | 34716 ft | 508 kts | 145° |
| 2026-04-26 19:48 | 32.14806 | 73.83856 | 34720 ft | 508 kts | 145° |
| 2026-04-26 19:48 | 32.09220 | 73.88976 | 34718 ft | 508 kts | 145° |
| 2026-04-26 19:49 | 32.03667 | 73.94056 | 34732 ft | 508 kts | 145° |
| 2026-04-26 19:49 | 31.98081 | 73.99160 | 34720 ft | 508 kts | 145° |
| 2026-04-26 19:50 | 31.92488 | 74.04261 | 34722 ft | 508 kts | 145° |
| 2026-04-26 19:50 | 31.86894 | 74.09354 | 34726 ft | 509 kts | 145° |
| 2026-04-26 19:51 | 31.81294 | 74.14446 | 34716 ft | 509 kts | 145° |
| 2026-04-26 19:51 | 31.75680 | 74.19543 | 34725 ft | 509 kts | 145° |
| 2026-04-26 19:52 | 31.70070 | 74.24626 | 34718 ft | 508 kts | 145° |
| 2026-04-26 19:52 | 31.64497 | 74.29673 | 34719 ft | 508 kts | 145° |
| 2026-04-26 19:53 | 31.58895 | 74.34735 | 34722 ft | 509 kts | 145° |
| 2026-04-26 19:53 | 31.53278 | 74.39802 | 34725 ft | 509 kts | 145° |
| 2026-04-26 19:54 | 31.47660 | 74.44862 | 34717 ft | 508 kts | 145° |
| 2026-04-26 19:54 | 31.42080 | 74.49882 | 34718 ft | 508 kts | 145° |
| 2026-04-26 19:55 | 31.36466 | 74.54924 | 34718 ft | 509 kts | 145° |
| 2026-04-26 19:55 | 31.31085 | 74.60332 | 34714 ft | 511 kts | 139° |
| 2026-04-26 19:56 | 31.25931 | 74.66072 | 34710 ft | 511 kts | 139° |
| 2026-04-26 19:56 | 31.20802 | 74.71776 | 34716 ft | 512 kts | 139° |
| 2026-04-26 19:57 | 31.15609 | 74.77489 | 34710 ft | 512 kts | 139° |
| 2026-04-26 19:57 | 31.10400 | 74.83193 | 34707 ft | 512 kts | 139° |
| 2026-04-26 19:58 | 31.05218 | 74.88859 | 34701 ft | 513 kts | 139° |
| 2026-04-26 19:58 | 31.00013 | 74.94546 | 34710 ft | 513 kts | 139° |
| 2026-04-26 19:59 | 30.94798 | 75.00236 | 34715 ft | 513 kts | 139° |
| 2026-04-26 19:59 | 30.89588 | 75.05910 | 34712 ft | 512 kts | 139° |
| 2026-04-26 20:00 | 30.84379 | 75.11577 | 34719 ft | 512 kts | 139° |
| 2026-04-26 20:00 | 30.79494 | 75.17550 | 34718 ft | 514 kts | 130° |
| 2026-04-26 20:01 | 30.75437 | 75.24412 | 34733 ft | 515 kts | 124° |
| 2026-04-26 20:01 | 30.71536 | 75.31407 | 34731 ft | 515 kts | 124° |
| 2026-04-26 20:02 | 30.67609 | 75.38381 | 34731 ft | 516 kts | 124° |
| 2026-04-26 20:02 | 30.64319 | 75.44162 | 34708 ft | 516 kts | 124° |
| 2026-04-26 20:03 | 30.59669 | 75.52296 | 34707 ft | 517 kts | 124° |
| 2026-04-26 20:03 | 30.55683 | 75.59253 | 34705 ft | 517 kts | 124° |
| 2026-04-26 20:04 | 30.51710 | 75.66174 | 34713 ft | 517 kts | 124° |
| 2026-04-26 20:04 | 30.47718 | 75.73120 | 34713 ft | 517 kts | 124° |
| 2026-04-26 20:05 | 30.43749 | 75.80016 | 34711 ft | 517 kts | 124° |
| 2026-04-26 20:05 | 30.39752 | 75.86946 | 34709 ft | 516 kts | 124° |
| 2026-04-26 20:06 | 30.35758 | 75.93863 | 34710 ft | 516 kts | 124° |
| 2026-04-26 20:06 | 30.31755 | 76.00783 | 34715 ft | 516 kts | 124° |
| 2026-04-26 20:07 | 30.27753 | 76.07692 | 34721 ft | 517 kts | 124° |
| 2026-04-26 20:07 | 30.23764 | 76.14562 | 34712 ft | 516 kts | 124° |
| 2026-04-26 20:08 | 30.19752 | 76.21460 | 34711 ft | 516 kts | 124° |
| 2026-04-26 20:08 | 30.15731 | 76.28362 | 34712 ft | 516 kts | 124° |
| 2026-04-26 20:09 | 30.11734 | 76.35212 | 34717 ft | 517 kts | 124° |
| 2026-04-26 20:09 | 30.07703 | 76.42107 | 34714 ft | 517 kts | 124° |
| 2026-04-26 20:10 | 30.03695 | 76.48956 | 34712 ft | 517 kts | 124° |
| 2026-04-26 20:10 | 29.99660 | 76.55833 | 34709 ft | 517 kts | 124° |
| 2026-04-26 20:11 | 29.95620 | 76.62706 | 34713 ft | 517 kts | 124° |
| 2026-04-26 20:12 | 29.89560 | 76.72999 | 34717 ft | 517 kts | 125° |
| 2026-04-26 20:12 | 29.85514 | 76.79859 | 34712 ft | 517 kts | 125° |
| 2026-04-26 20:13 | 29.81489 | 76.86668 | 34721 ft | 517 kts | 125° |
| 2026-04-26 20:13 | 29.77435 | 76.93516 | 34733 ft | 517 kts | 125° |
| 2026-04-26 20:14 | 29.73374 | 77.00362 | 34738 ft | 517 kts | 125° |
| 2026-04-26 20:14 | 29.69308 | 77.07209 | 34720 ft | 518 kts | 125° |
| 2026-04-26 20:15 | 29.65242 | 77.14043 | 34731 ft | 517 kts | 125° |
| 2026-04-26 20:15 | 29.61175 | 77.20868 | 34736 ft | 517 kts | 125° |
| 2026-04-26 20:16 | 29.57127 | 77.27650 | 34719 ft | 518 kts | 125° |
| 2026-04-26 20:16 | 29.53049 | 77.34470 | 34734 ft | 518 kts | 125° |
| 2026-04-26 20:17 | 29.48960 | 77.41295 | 34737 ft | 518 kts | 125° |
| 2026-04-26 20:17 | 29.44868 | 77.48115 | 34728 ft | 518 kts | 125° |
| 2026-04-26 20:18 | 29.40792 | 77.54895 | 34737 ft | 518 kts | 125° |
| 2026-04-26 20:18 | 29.36689 | 77.61713 | 34715 ft | 518 kts | 125° |
| 2026-04-26 20:19 | 29.32584 | 77.68521 | 34729 ft | 518 kts | 125° |
| 2026-04-26 20:19 | 29.28507 | 77.75278 | 34713 ft | 518 kts | 125° |
| 2026-04-26 20:20 | 29.24399 | 77.82067 | 34717 ft | 518 kts | 125° |
| 2026-04-26 20:20 | 29.20285 | 77.88853 | 34720 ft | 518 kts | 125° |
| 2026-04-26 20:21 | 29.16173 | 77.95626 | 34721 ft | 517 kts | 125° |
| 2026-04-26 20:21 | 29.12085 | 78.02353 | 34737 ft | 518 kts | 125° |
| 2026-04-26 20:22 | 29.07959 | 78.09132 | 34738 ft | 518 kts | 125° |
| 2026-04-26 20:22 | 29.03829 | 78.15905 | 34731 ft | 519 kts | 126° |
| 2026-04-26 20:23 | 28.99721 | 78.22629 | 34735 ft | 519 kts | 126° |
| 2026-04-26 20:23 | 28.95575 | 78.29404 | 34731 ft | 520 kts | 126° |
| 2026-04-26 20:24 | 28.91427 | 78.36172 | 34730 ft | 520 kts | 126° |
| 2026-04-26 20:24 | 28.87273 | 78.42942 | 34731 ft | 521 kts | 126° |
| 2026-04-26 20:25 | 28.83113 | 78.49708 | 34733 ft | 521 kts | 126° |
| 2026-04-26 20:25 | 28.78948 | 78.56469 | 34732 ft | 521 kts | 126° |
| 2026-04-26 20:26 | 28.74804 | 78.63190 | 34734 ft | 521 kts | 126° |
| 2026-04-26 20:26 | 28.70632 | 78.69946 | 34733 ft | 521 kts | 126° |
| 2026-04-26 20:27 | 28.66453 | 78.76698 | 34720 ft | 521 kts | 126° |
| 2026-04-26 20:27 | 28.62272 | 78.83442 | 34712 ft | 522 kts | 126° |
| 2026-04-26 20:28 | 28.58084 | 78.90188 | 34730 ft | 522 kts | 126° |
| 2026-04-26 20:28 | 28.53891 | 78.96933 | 34708 ft | 523 kts | 126° |
| 2026-04-26 20:29 | 28.50396 | 79.02547 | 34714 ft | 523 kts | 126° |
| 2026-04-26 20:29 | 28.45496 | 79.10407 | 34713 ft | 524 kts | 126° |
| 2026-04-26 20:30 | 28.41273 | 79.17167 | 34715 ft | 525 kts | 126° |
| 2026-04-26 20:30 | 28.37725 | 79.22839 | 34714 ft | 526 kts | 126° |
| 2026-04-26 20:31 | 28.33507 | 79.29569 | 34707 ft | 526 kts | 126° |
| 2026-04-26 20:31 | 28.29257 | 79.36341 | 34700 ft | 527 kts | 126° |
| 2026-04-26 20:32 | 28.24999 | 79.43115 | 34704 ft | 527 kts | 126° |
| 2026-04-26 20:32 | 28.20725 | 79.49908 | 34700 ft | 527 kts | 126° |
| 2026-04-26 20:33 | 28.16457 | 79.56677 | 34702 ft | 528 kts | 126° |
| 2026-04-26 20:33 | 28.12203 | 79.63413 | 34702 ft | 528 kts | 126° |
| 2026-04-26 20:34 | 28.07915 | 79.70191 | 34706 ft | 529 kts | 126° |
| 2026-04-26 20:34 | 28.03619 | 79.76974 | 34703 ft | 530 kts | 126° |
| 2026-04-26 20:35 | 27.99336 | 79.83721 | 34701 ft | 530 kts | 126° |
| 2026-04-26 20:35 | 27.95019 | 79.90515 | 34697 ft | 530 kts | 126° |
| 2026-04-26 20:36 | 27.90710 | 79.97288 | 34693 ft | 530 kts | 126° |
| 2026-04-26 20:36 | 27.86395 | 80.04060 | 34692 ft | 530 kts | 126° |
| 2026-04-26 20:37 | 27.82111 | 80.10769 | 34693 ft | 530 kts | 126° |
| 2026-04-26 20:37 | 27.77795 | 80.17515 | 34696 ft | 530 kts | 126° |
| 2026-04-26 20:38 | 27.73471 | 80.24266 | 34696 ft | 530 kts | 126° |
| 2026-04-26 20:38 | 27.69145 | 80.31012 | 34700 ft | 530 kts | 126° |
| 2026-04-26 20:39 | 27.64819 | 80.37746 | 34704 ft | 530 kts | 126° |
| 2026-04-26 20:39 | 27.60491 | 80.44470 | 34702 ft | 529 kts | 126° |
| 2026-04-26 20:40 | 27.56186 | 80.51152 | 34703 ft | 529 kts | 126° |
| 2026-04-26 20:40 | 27.51859 | 80.57857 | 34703 ft | 529 kts | 126° |
| 2026-04-26 20:41 | 27.47523 | 80.64562 | 34702 ft | 529 kts | 127° |
| 2026-04-26 20:41 | 27.43189 | 80.71257 | 34704 ft | 529 kts | 127° |
| 2026-04-26 20:42 | 27.38851 | 80.77950 | 34705 ft | 529 kts | 127° |
| 2026-04-26 20:42 | 27.34507 | 80.84638 | 34702 ft | 529 kts | 127° |
| 2026-04-26 20:43 | 27.30193 | 80.91274 | 34704 ft | 529 kts | 127° |
| 2026-04-26 20:43 | 27.25840 | 80.97958 | 34703 ft | 529 kts | 127° |
| 2026-04-26 20:44 | 27.21487 | 81.04632 | 34706 ft | 529 kts | 127° |
| 2026-04-26 20:44 | 27.17137 | 81.11291 | 34701 ft | 529 kts | 127° |
| 2026-04-26 20:45 | 27.12809 | 81.17906 | 34699 ft | 528 kts | 127° |
| 2026-04-26 20:45 | 27.08444 | 81.24567 | 34701 ft | 528 kts | 127° |
| 2026-04-26 20:46 | 27.04089 | 81.31207 | 34703 ft | 528 kts | 127° |
| 2026-04-26 20:46 | 26.99727 | 81.37847 | 34701 ft | 528 kts | 127° |
| 2026-04-26 20:47 | 26.96039 | 81.44821 | 34697 ft | 525 kts | 105° |
| 2026-04-26 20:47 | 26.95565 | 81.52865 | 34702 ft | 517 kts | 76° |
| 2026-04-26 20:48 | 26.97712 | 81.60473 | 34712 ft | 511 kts | 67° |
| 2026-04-26 20:48 | 27.00007 | 81.68062 | 34720 ft | 516 kts | 68° |
| 2026-04-26 20:49 | 27.02216 | 81.75703 | 34721 ft | 519 kts | 69° |
| 2026-04-26 20:49 | 27.04414 | 81.83454 | 34718 ft | 521 kts | 69° |
| 2026-04-26 20:50 | 27.06611 | 81.91212 | 34720 ft | 521 kts | 69° |
| 2026-04-26 20:50 | 27.08810 | 81.98971 | 34722 ft | 521 kts | 69° |
| 2026-04-26 20:51 | 27.11000 | 82.06714 | 34717 ft | 519 kts | 69° |
| 2026-04-26 20:51 | 27.13150 | 82.14430 | 34717 ft | 517 kts | 73° |
| 2026-04-26 20:51 | 27.13607 | 82.18394 | 34729 ft | 522 kts | 89° |
| 2026-04-26 20:52 | 27.13162 | 82.22446 | 34747 ft | 525 kts | 103° |
| 2026-04-26 20:52 | 27.11885 | 82.26293 | 34735 ft | 526 kts | 119° |
| 2026-04-26 20:52 | 27.10013 | 82.29808 | 34758 ft | 524 kts | 122° |
| 2026-04-26 20:53 | 27.06180 | 82.36800 | 34748 ft | 527 kts | 122° |
| 2026-04-26 20:53 | 27.02379 | 82.43876 | 34748 ft | 530 kts | 121° |
| 2026-04-26 20:54 | 26.98640 | 82.50967 | 34747 ft | 531 kts | 121° |
| 2026-04-26 20:54 | 26.94890 | 82.58115 | 34748 ft | 532 kts | 121° |
| 2026-04-26 20:55 | 26.91122 | 82.65271 | 34747 ft | 533 kts | 121° |
| 2026-04-26 20:55 | 26.87352 | 82.72411 | 34747 ft | 532 kts | 121° |
| 2026-04-26 20:56 | 26.83581 | 82.79541 | 34749 ft | 531 kts | 121° |
| 2026-04-26 20:56 | 26.79842 | 82.86595 | 34751 ft | 529 kts | 121° |
| 2026-04-26 20:57 | 26.76078 | 82.93685 | 34749 ft | 528 kts | 121° |
| 2026-04-26 20:57 | 26.72321 | 83.00750 | 34744 ft | 527 kts | 121° |
| 2026-04-26 20:58 | 26.68573 | 83.07792 | 34719 ft | 527 kts | 121° |
| 2026-04-26 20:58 | 26.64840 | 83.14796 | 34719 ft | 527 kts | 121° |
| 2026-04-26 20:59 | 26.61081 | 83.21835 | 34719 ft | 527 kts | 121° |
| 2026-04-26 20:59 | 26.57313 | 83.28878 | 34715 ft | 527 kts | 122° |
| 2026-04-26 21:00 | 26.53545 | 83.35910 | 34723 ft | 528 kts | 122° |
| 2026-04-26 21:00 | 26.49782 | 83.42924 | 34733 ft | 529 kts | 122° |
| 2026-04-26 21:01 | 26.45992 | 83.49972 | 34717 ft | 529 kts | 122° |
| 2026-04-26 21:01 | 26.42197 | 83.57025 | 34719 ft | 530 kts | 122° |
| 2026-04-26 21:02 | 26.38396 | 83.64076 | 34718 ft | 530 kts | 122° |
| 2026-04-26 21:02 | 26.34585 | 83.71134 | 34720 ft | 531 kts | 122° |
| 2026-04-26 21:03 | 26.30772 | 83.78185 | 34717 ft | 531 kts | 122° |
| 2026-04-26 21:03 | 26.26972 | 83.85206 | 34717 ft | 531 kts | 122° |
| 2026-04-26 21:04 | 26.23148 | 83.92267 | 34720 ft | 531 kts | 122° |
| 2026-04-26 21:04 | 26.19332 | 83.99320 | 34735 ft | 531 kts | 122° |
| 2026-04-26 21:05 | 26.15519 | 84.06364 | 34732 ft | 531 kts | 122° |
| 2026-04-26 21:05 | 26.11730 | 84.13350 | 34735 ft | 530 kts | 122° |
| 2026-04-26 21:06 | 26.07913 | 84.20375 | 34718 ft | 530 kts | 122° |
| 2026-04-26 21:06 | 26.04092 | 84.27398 | 34716 ft | 530 kts | 122° |
| 2026-04-26 21:07 | 26.00270 | 84.34413 | 34727 ft | 530 kts | 122° |
| 2026-04-26 21:07 | 25.96447 | 84.41420 | 34722 ft | 529 kts | 122° |
| 2026-04-26 21:08 | 25.92646 | 84.48374 | 34714 ft | 529 kts | 123° |
| 2026-04-26 21:08 | 25.88816 | 84.55366 | 34700 ft | 529 kts | 123° |
| 2026-04-26 21:09 | 25.84988 | 84.62350 | 34689 ft | 528 kts | 123° |
| 2026-04-26 21:09 | 25.81190 | 84.69268 | 34682 ft | 527 kts | 123° |
| 2026-04-26 21:10 | 25.77373 | 84.76207 | 34678 ft | 526 kts | 123° |
| 2026-04-26 21:10 | 25.73565 | 84.83122 | 34675 ft | 525 kts | 123° |
| 2026-04-26 21:11 | 25.69758 | 84.90026 | 34676 ft | 524 kts | 123° |
| 2026-04-26 21:11 | 25.65971 | 84.96884 | 34663 ft | 522 kts | 123° |
| 2026-04-26 21:12 | 25.62181 | 85.03750 | 34664 ft | 520 kts | 122° |
| 2026-04-26 21:12 | 25.59152 | 85.11039 | 34675 ft | 522 kts | 110° |
| 2026-04-26 21:13 | 25.57316 | 85.18758 | 34675 ft | 522 kts | 102° |
| 2026-04-26 21:13 | 25.55994 | 85.26667 | 34671 ft | 521 kts | 101° |
| 2026-04-26 21:14 | 25.54672 | 85.34582 | 34666 ft | 521 kts | 102° |
| 2026-04-26 21:14 | 25.53307 | 85.42455 | 34669 ft | 520 kts | 102° |
| 2026-04-26 21:15 | 25.51927 | 85.50273 | 34665 ft | 520 kts | 102° |
| 2026-04-26 21:15 | 25.50533 | 85.58137 | 34677 ft | 519 kts | 102° |
| 2026-04-26 21:16 | 25.49142 | 85.65975 | 34675 ft | 518 kts | 102° |
| 2026-04-26 21:16 | 25.47758 | 85.73754 | 34676 ft | 518 kts | 102° |
| 2026-04-26 21:17 | 25.46359 | 85.81593 | 34676 ft | 518 kts | 102° |
| 2026-04-26 21:17 | 25.44957 | 85.89421 | 34674 ft | 518 kts | 102° |
| 2026-04-26 21:18 | 25.43788 | 85.95930 | 34681 ft | 518 kts | 102° |
| 2026-04-26 21:18 | 25.42152 | 86.05015 | 34687 ft | 518 kts | 103° |
| 2026-04-26 21:19 | 25.40967 | 86.11567 | 34682 ft | 517 kts | 103° |
| 2026-04-26 21:19 | 25.39561 | 86.19327 | 34682 ft | 517 kts | 103° |
| 2026-04-26 21:20 | 25.38146 | 86.27120 | 34685 ft | 517 kts | 103° |
| 2026-04-26 21:20 | 25.36728 | 86.34909 | 34688 ft | 516 kts | 103° |
| 2026-04-26 21:21 | 25.35189 | 86.42662 | 34699 ft | 515 kts | 108° |
| 2026-04-26 21:21 | 25.32642 | 86.50051 | 34696 ft | 513 kts | 117° |
| 2026-04-26 21:22 | 25.29612 | 86.57200 | 34694 ft | 514 kts | 117° |
| 2026-04-26 21:22 | 25.26597 | 86.64319 | 34695 ft | 514 kts | 117° |
| 2026-04-26 21:23 | 25.22095 | 86.75114 | 34699 ft | 515 kts | 116° |
| 2026-04-26 21:23 | 25.19117 | 86.82273 | 34704 ft | 515 kts | 116° |
| 2026-04-26 21:24 | 25.16113 | 86.89474 | 34701 ft | 515 kts | 117° |
| 2026-04-26 21:24 | 25.13108 | 86.96665 | 34704 ft | 516 kts | 117° |
| 2026-04-26 21:25 | 25.10096 | 87.03859 | 34702 ft | 516 kts | 117° |
| 2026-04-26 21:25 | 25.07098 | 87.11005 | 34702 ft | 516 kts | 117° |
| 2026-04-26 21:26 | 25.04076 | 87.18199 | 34708 ft | 516 kts | 117° |
| 2026-04-26 21:26 | 25.01051 | 87.25387 | 34711 ft | 516 kts | 117° |
| 2026-04-26 21:27 | 24.98021 | 87.32579 | 34712 ft | 517 kts | 117° |
| 2026-04-26 21:27 | 24.94988 | 87.39760 | 34713 ft | 517 kts | 117° |
| 2026-04-26 21:28 | 24.91969 | 87.46903 | 34709 ft | 517 kts | 117° |
| 2026-04-26 21:28 | 24.88924 | 87.54092 | 34708 ft | 517 kts | 117° |
| 2026-04-26 21:29 | 24.85880 | 87.61270 | 34714 ft | 517 kts | 117° |
| 2026-04-26 21:29 | 24.82828 | 87.68453 | 34713 ft | 518 kts | 117° |
| 2026-04-26 21:30 | 24.79791 | 87.75597 | 34711 ft | 518 kts | 117° |
| 2026-04-26 21:30 | 24.76743 | 87.82791 | 34708 ft | 518 kts | 116° |
| 2026-04-26 21:31 | 24.73775 | 87.90025 | 34738 ft | 519 kts | 116° |
| 2026-04-26 21:31 | 24.70806 | 87.97272 | 34739 ft | 519 kts | 116° |
| 2026-04-26 21:32 | 24.67812 | 88.04518 | 34745 ft | 519 kts | 116° |
| 2026-04-26 21:32 | 24.64802 | 88.11738 | 34740 ft | 520 kts | 116° |
| 2026-04-26 21:33 | 24.61793 | 88.18915 | 34738 ft | 520 kts | 116° |
| 2026-04-26 21:33 | 24.58801 | 88.26061 | 34371 ft | 507 kts | 116° |
| 2026-04-26 21:34 | 24.57327 | 88.29580 | 33781 ft | 509 kts | 116° |
| 2026-04-26 21:34 | 24.55840 | 88.33126 | 33115 ft | 514 kts | 116° |
| 2026-04-26 21:34 | 24.54334 | 88.36714 | 32429 ft | 519 kts | 116° |
| 2026-04-26 21:34 | 24.52819 | 88.40319 | 31898 ft | 520 kts | 116° |
| 2026-04-26 21:35 | 24.51307 | 88.43917 | 31526 ft | 517 kts | 116° |
| 2026-04-26 21:35 | 24.49806 | 88.47489 | 31221 ft | 512 kts | 116° |
| 2026-04-26 21:35 | 24.48333 | 88.50989 | 30885 ft | 510 kts | 116° |
| 2026-04-26 21:35 | 24.46851 | 88.54507 | 30534 ft | 507 kts | 116° |
| 2026-04-26 21:36 | 24.45428 | 88.58047 | 30154 ft | 505 kts | 112° |
| 2026-04-26 21:36 | 24.44659 | 88.60462 | 29875 ft | 505 kts | 108° |
| 2026-04-26 21:36 | 24.43495 | 88.65457 | 29358 ft | 503 kts | 101° |
| 2026-04-26 21:36 | 24.42993 | 88.69255 | 29006 ft | 500 kts | 96° |
| 2026-04-26 21:37 | 24.42624 | 88.72988 | 28669 ft | 497 kts | 95° |
| 2026-04-26 21:37 | 24.42269 | 88.76752 | 28317 ft | 494 kts | 95° |
| 2026-04-26 21:37 | 24.41914 | 88.80499 | 27937 ft | 493 kts | 95° |
| 2026-04-26 21:37 | 24.41549 | 88.84243 | 27555 ft | 490 kts | 96° |
| 2026-04-26 21:38 | 24.41176 | 88.87964 | 26989 ft | 493 kts | 96° |
| 2026-04-26 21:38 | 24.40790 | 88.91728 | 26261 ft | 499 kts | 96° |
| 2026-04-26 21:38 | 24.40395 | 88.95523 | 25651 ft | 502 kts | 96° |
| 2026-04-26 21:38 | 24.39996 | 88.99338 | 25074 ft | 503 kts | 96° |
| 2026-04-26 21:39 | 24.39599 | 89.03125 | 24475 ft | 505 kts | 96° |
| 2026-04-26 21:39 | 24.39196 | 89.06953 | 23956 ft | 505 kts | 96° |
| 2026-04-26 21:39 | 24.38795 | 89.10767 | 23651 ft | 499 kts | 96° |
| 2026-04-26 21:39 | 24.38400 | 89.14518 | 23582 ft | 489 kts | 96° |
| 2026-04-26 21:40 | 24.38013 | 89.18189 | 23525 ft | 479 kts | 96° |
| 2026-04-26 21:40 | 24.37631 | 89.21794 | 23453 ft | 469 kts | 96° |
| 2026-04-26 21:40 | 24.37260 | 89.25292 | 23097 ft | 457 kts | 96° |
| 2026-04-26 21:40 | 24.36895 | 89.28730 | 22447 ft | 453 kts | 96° |
| 2026-04-26 21:41 | 24.36536 | 89.32115 | 21721 ft | 451 kts | 96° |
| 2026-04-26 21:41 | 24.36173 | 89.35528 | 21016 ft | 449 kts | 96° |
| 2026-04-26 21:41 | 24.35811 | 89.38912 | 20358 ft | 445 kts | 96° |
| 2026-04-26 21:41 | 24.35451 | 89.42271 | 19755 ft | 441 kts | 96° |
| 2026-04-26 21:42 | 24.35093 | 89.45595 | 19148 ft | 437 kts | 96° |
| 2026-04-26 21:42 | 24.34738 | 89.48899 | 18555 ft | 434 kts | 96° |
| 2026-04-26 21:42 | 24.34386 | 89.52172 | 17954 ft | 431 kts | 96° |
| 2026-04-26 21:42 | 24.34038 | 89.55397 | 17376 ft | 427 kts | 96° |
| 2026-04-26 21:43 | 24.33686 | 89.58623 | 16796 ft | 424 kts | 96° |
| 2026-04-26 21:43 | 24.33171 | 89.61795 | 16233 ft | 421 kts | 103° |
| 2026-04-26 21:43 | 24.32350 | 89.64847 | 15681 ft | 416 kts | 110° |
| 2026-04-26 21:43 | 24.31374 | 89.67822 | 15109 ft | 413 kts | 110° |
| 2026-04-26 21:44 | 24.30399 | 89.70770 | 14585 ft | 409 kts | 110° |
| 2026-04-26 21:44 | 24.29436 | 89.73690 | 14053 ft | 406 kts | 110° |
| 2026-04-26 21:44 | 24.28485 | 89.76591 | 13529 ft | 403 kts | 110° |
| 2026-04-26 21:44 | 24.27555 | 89.79440 | 13301 ft | 392 kts | 111° |
| 2026-04-26 21:45 | 24.26664 | 89.82172 | 13212 ft | 379 kts | 110° |
| 2026-04-26 21:45 | 24.25795 | 89.84848 | 13125 ft | 367 kts | 111° |
| 2026-04-26 21:45 | 24.24953 | 89.87441 | 13042 ft | 355 kts | 111° |
| 2026-04-26 21:45 | 24.24135 | 89.89960 | 12968 ft | 346 kts | 111° |
| 2026-04-26 21:46 | 24.23339 | 89.92410 | 12855 ft | 337 kts | 111° |
| 2026-04-26 21:46 | 24.22559 | 89.94804 | 12697 ft | 331 kts | 111° |
| 2026-04-26 21:46 | 24.21791 | 89.97163 | 12382 ft | 327 kts | 111° |
| 2026-04-26 21:46 | 24.21030 | 89.99499 | 11911 ft | 323 kts | 111° |
| 2026-04-26 21:47 | 24.20278 | 90.01808 | 11317 ft | 321 kts | 111° |
| 2026-04-26 21:47 | 24.19532 | 90.04099 | 10757 ft | 316 kts | 111° |
| 2026-04-26 21:47 | 24.18797 | 90.06349 | 10247 ft | 311 kts | 112° |
| 2026-04-26 21:47 | 24.18074 | 90.08568 | 9722 ft | 306 kts | 112° |
| 2026-04-26 21:48 | 24.17364 | 90.10743 | 9183 ft | 301 kts | 112° |
| 2026-04-26 21:48 | 24.16662 | 90.12889 | 8656 ft | 296 kts | 114° |
| 2026-04-26 21:48 | 24.15681 | 90.14774 | 8093 ft | 284 kts | 138° |
| 2026-04-26 21:48 | 24.14195 | 90.16076 | 7534 ft | 276 kts | 148° |
| 2026-04-26 21:49 | 24.12639 | 90.17289 | 6999 ft | 272 kts | 148° |
| 2026-04-26 21:49 | 24.11109 | 90.18497 | 6463 ft | 268 kts | 147° |
| 2026-04-26 21:49 | 24.09610 | 90.19685 | 5942 ft | 264 kts | 147° |
| 2026-04-26 21:49 | 24.08133 | 90.20856 | 5427 ft | 260 kts | 147° |
| 2026-04-26 21:50 | 24.06687 | 90.22004 | 4979 ft | 261 kts | 147° |
| 2026-04-26 21:50 | 24.05707 | 90.22772 | 4852 ft | 261 kts | 147° |
| 2026-04-26 21:50 | 24.03718 | 90.24316 | 4369 ft | 260 kts | 147° |
| 2026-04-26 21:50 | 24.02262 | 90.25471 | 4038 ft | 257 kts | 146° |
| 2026-04-26 21:51 | 24.00852 | 90.26600 | 3685 ft | 244 kts | 146° |
| 2026-04-26 21:51 | 23.99518 | 90.27669 | 3371 ft | 231 kts | 147° |
| 2026-04-26 21:51 | 23.98287 | 90.28655 | 3125 ft | 214 kts | 147° |
| 2026-04-26 21:51 | 23.97113 | 90.29590 | 2823 ft | 203 kts | 146° |
| 2026-04-26 21:52 | 23.96013 | 90.30467 | 2539 ft | 187 kts | 145° |
| 2026-04-26 21:52 | 23.95002 | 90.31275 | 2315 ft | 170 kts | 144° |
| 2026-04-26 21:52 | 23.94090 | 90.32003 | 2095 ft | 156 kts | 144° |
| 2026-04-26 21:52 | 23.93247 | 90.32678 | 1917 ft | 148 kts | 143° |
| 2026-04-26 21:53 | 23.92407 | 90.33347 | 1719 ft | 151 kts | 143° |
| 2026-04-26 21:53 | 23.91561 | 90.34021 | 1509 ft | 150 kts | 143° |
| 2026-04-26 21:53 | 23.90729 | 90.34685 | 1310 ft | 150 kts | 143° |
| 2026-04-26 21:53 | 23.89877 | 90.35365 | 1111 ft | 152 kts | 143° |
| 2026-04-26 21:54 | 23.89016 | 90.36053 | 910 ft | 153 kts | 142° |
| 2026-04-26 21:54 | 23.88165 | 90.36733 | 694 ft | 151 kts | 143° |
| 2026-04-26 21:54 | 23.87313 | 90.37412 | 507 ft | 152 kts | 142° |
| 2026-04-26 21:54 | 23.86454 | 90.38087 | 324 ft | 151 kts | 142° |
| 2026-04-26 21:55 | 23.85617 | 90.38767 | 134 ft | 149 kts | 144° |
| 2026-04-26 21:55 | 23.84782 | 90.39424 | 40 ft | 140 kts | 143° |
| 2026-04-26 21:55 | 23.84116 | 90.39954 | 39 ft | 98 kts | 143° |
| 2026-04-26 21:55 | 23.83691 | 90.40298 | 43 ft | 54 kts | 144° |
| 2026-04-26 21:56 | 23.83494 | 90.40449 | 42 ft | 27 kts | 142° |
| 2026-04-26 21:56 | 23.83311 | 90.40597 | 39 ft | 29 kts | 145° |
| 2026-04-26 21:56 | 23.83221 | 90.40693 | 38 ft | 17 kts | 114° |
| 2026-04-26 21:56 | 23.83244 | 90.40806 | 41 ft | 15 kts | 52° |
| 2026-04-26 21:57 | 23.83307 | 90.40899 | 40 ft | 16 kts | 53° |
| 2026-04-26 21:57 | 23.83374 | 90.40998 | 40 ft | 16 kts | 55° |
| 2026-04-26 21:57 | 23.83438 | 90.41092 | 40 ft | 12 kts | 52° |
| 2026-04-26 21:57 | 23.83492 | 90.41110 | 40 ft | 1 kts | 344° |
| 2026-04-26 21:58 | 23.83542 | 90.41075 | 40 ft | 12 kts | 324° |
| 2026-04-26 21:58 | 23.83613 | 90.41019 | 40 ft | 13 kts | 323° |
| 2026-04-26 21:58 | 23.83687 | 90.40960 | 40 ft | 13 kts | 325° |
| 2026-04-26 21:58 | 23.83761 | 90.40902 | 40 ft | 13 kts | 323° |
| 2026-04-26 21:59 | 23.83836 | 90.40843 | 40 ft | 13 kts | 324° |
| 2026-04-26 21:59 | 23.83910 | 90.40784 | 39 ft | 13 kts | 324° |
| 2026-04-26 21:59 | 23.83984 | 90.40725 | 40 ft | 13 kts | 324° |
| 2026-04-26 21:59 | 23.84058 | 90.40666 | 40 ft | 13 kts | 323° |
| 2026-04-26 22:00 | 23.84106 | 90.40628 | 38 ft | 5 kts | 322° |
| 2026-04-26 22:00 | 23.84139 | 90.40600 | 40 ft | 10 kts | 324° |
| 2026-04-26 22:00 | 23.84200 | 90.40553 | 40 ft | 11 kts | 324° |
| 2026-04-26 22:00 | 23.84263 | 90.40503 | 38 ft | 12 kts | 323° |
| 2026-04-26 22:01 | 23.84334 | 90.40447 | 40 ft | 13 kts | 324° |
| 2026-04-26 22:01 | 23.84421 | 90.40378 | 40 ft | 17 kts | 324° |
| 2026-04-26 22:01 | 23.84516 | 90.40302 | 40 ft | 16 kts | 324° |
| 2026-04-26 22:01 | 23.84609 | 90.40229 | 40 ft | 16 kts | 324° |
| 2026-04-26 22:02 | 23.84701 | 90.40156 | 40 ft | 16 kts | 323° |
| 2026-04-26 22:02 | 23.84762 | 90.40107 | 39 ft | 16 kts | 324° |
| 2026-04-26 22:02 | 23.84884 | 90.40010 | 38 ft | 16 kts | 320° |
| 2026-04-26 22:02 | 23.84976 | 90.39937 | 40 ft | 16 kts | 324° |
| 2026-04-26 22:03 | 23.85069 | 90.39863 | 40 ft | 16 kts | 323° |
| 2026-04-26 22:03 | 23.85154 | 90.39796 | 39 ft | 14 kts | 324° |
| 2026-04-26 22:03 | 23.85233 | 90.39733 | 39 ft | 14 kts | 322° |
| 2026-04-26 22:03 | 23.85314 | 90.39668 | 40 ft | 14 kts | 324° |
| 2026-04-26 22:04 | 23.85391 | 90.39606 | 39 ft | 12 kts | 322° |
| 2026-04-26 22:04 | 23.85449 | 90.39597 | 40 ft | 9 kts | 31° |
| 2026-04-26 22:04 | 23.85492 | 90.39648 | 40 ft | 9 kts | 51° |
| 2026-04-26 22:04 | 23.85534 | 90.39698 | 40 ft | 8 kts | 21° |
| 2026-04-26 22:05 | 23.85586 | 90.39679 | 40 ft | 8 kts | 327° |
| 2026-04-26 22:05 | 23.85619 | 90.39656 | 40 ft | 0 kts | 327° |
| 2026-04-26 22:05 | 23.85628 | 90.39648 | 40 ft | 4 kts | 316° |
| 2026-04-26 22:05 | 23.85619 | 90.39599 | 40 ft | 6 kts | 237° |
| 2026-04-26 22:06 | 23.85601 | 90.39571 | 40 ft | 1 kts | 235° |
| 2026-04-26 22:06 | 23.85597 | 90.39565 | 40 ft | 0 kts | 234° |
| 2026-04-26 22:06 | 23.85597 | 90.39564 | 40 ft | 0 kts | 234° |